Time;durP1;ratioP1;P1;durP2;ratioP2;P2;SDS_P1;SDS_P2;PMS_P1;PMS_P2;Temp;Humidity;BMP_temperature;BMP_pressure;BME280_temperature;BME280_humidity;BME280_pressure;Samples;Min_cycle;Max_cycle;Signal;HPM_P1;HPM_P2
2022/05/05 00:00:11;;;;;;;9.02;7.80;;;;;;;12.45;nan;100675.59;5029110;28;20487;-71
2022/05/05 00:02:36;;;;;;;9.32;8.20;;;;;;;12.48;nan;100678.75;5025321;28;20038;-71
2022/05/05 00:05:03;;;;;;;7.85;6.68;;;;;;;12.51;nan;100685.56;5025614;28;20033;-71
2022/05/05 00:07:29;;;;;;;7.47;6.03;;;;;;;12.51;nan;100683.75;5027262;28;20391;-71
2022/05/05 00:09:54;;;;;;;6.50;5.80;;;;;;;12.50;nan;100678.59;5026675;28;20045;-72
2022/05/05 00:15:05;;;;;;;5.07;4.35;;;;;;;12.52;nan;100672.16;5025286;28;20087;-71
2022/05/05 00:17:33;;;;;;;7.72;6.93;;;;;;;12.47;nan;100666.50;5027138;28;20029;-71
2022/05/05 00:19:59;;;;;;;6.32;5.68;;;;;;;12.42;nan;100676.75;5027722;28;20355;-71
2022/05/05 00:22:24;;;;;;;5.63;4.88;;;;;;;12.38;nan;100670.09;5027492;28;20464;-71
2022/05/05 00:24:50;;;;;;;6.53;5.13;;;;;;;12.39;nan;100679.72;5025679;28;20053;-71
2022/05/05 00:27:15;;;;;;;9.23;7.40;;;;;;;12.41;nan;100683.03;5028476;28;20041;-71
2022/05/05 00:29:41;;;;;;;9.90;8.07;;;;;;;12.44;nan;100685.38;5030390;28;20045;-72
2022/05/05 00:32:06;;;;;;;8.90;6.38;;;;;;;12.48;nan;100678.75;5027981;28;20043;-71
2022/05/05 00:34:32;;;;;;;7.93;6.93;;;;;;;12.53;nan;100673.78;5027234;28;20156;-70
2022/05/05 00:36:57;;;;;;;8.23;7.07;;;;;;;12.57;nan;100674.31;5027971;28;20029;-71
2022/05/05 00:39:22;;;;;;;7.88;6.80;;;;;;;12.60;nan;100670.50;5027643;28;20133;-71
2022/05/05 00:41:48;;;;;;;7.35;6.25;;;;;;;12.62;nan;100672.00;5026656;28;20053;-71
2022/05/05 00:44:15;;;;;;;7.95;6.68;;;;;;;12.63;nan;100672.84;5026249;28;20125;-72
2022/05/05 00:46:46;;;;;;;8.90;7.07;;;;;;;12.63;nan;100678.13;5028325;28;20061;-71
2022/05/05 00:49:11;;;;;;;;;;;;;;;12.60;nan;100676.63;5026012;28;20053;-71
2022/05/05 00:51:36;;;;;;;11.23;8.90;;;;;;;12.58;nan;100688.41;5025547;28;19917;-72
2022/05/05 00:54:03;;;;;;;9.75;7.93;;;;;;;12.57;nan;100684.94;5027878;28;20036;-71
2022/05/05 00:56:29;;;;;;;8.55;7.25;;;;;;;12.58;nan;100680.44;5025507;28;20091;-71
2022/05/05 00:58:56;;;;;;;7.65;6.80;;;;;;;12.59;nan;100682.94;5024596;28;20042;-71
2022/05/05 01:01:22;;;;;;;9.02;7.43;;;;;;;12.63;nan;100683.44;5031035;28;20041;-71
2022/05/05 01:03:49;;;;;;;10.95;8.95;;;;;;;12.65;nan;100678.81;5032613;28;21423;-71
2022/05/05 01:06:15;;;;;;;10.68;9.15;;;;;;;12.66;nan;100686.63;5027050;28;20248;-71
2022/05/05 01:08:41;;;;;;;9.25;7.30;;;;;;;12.67;nan;100685.63;5024628;28;20032;-71
2022/05/05 01:11:07;;;;;;;10.60;8.95;;;;;;;12.67;nan;100682.13;5025984;28;20064;-71
2022/05/05 01:13:32;;;;;;;11.43;9.07;;;;;;;12.64;nan;100680.63;5026707;28;20041;-71
2022/05/05 01:15:59;;;;;;;10.55;8.73;;;;;;;12.63;nan;100683.44;5028067;28;20299;-71
2022/05/05 01:18:25;;;;;;;10.23;8.57;;;;;;;12.63;nan;100679.00;5025972;28;20401;-71
2022/05/05 01:20:52;;;;;;;10.30;8.90;;;;;;;12.64;nan;100683.28;5028270;28;20298;-71
2022/05/05 01:23:19;;;;;;;9.90;8.80;;;;;;;12.63;nan;100688.75;5043240;28;20572;-71
2022/05/05 01:28:31;;;;;;;11.15;8.98;;;;;;;12.61;nan;100691.59;5028651;28;20308;-71
2022/05/05 01:30:57;;;;;;;9.15;8.15;;;;;;;12.63;nan;100689.59;5031066;28;20041;-72
2022/05/05 01:33:24;;;;;;;7.93;7.13;;;;;;;12.65;nan;100687.59;5028928;28;20433;-71
2022/05/05 01:35:52;;;;;;;8.07;6.45;;;;;;;12.64;nan;100691.25;5030535;28;20041;-71
2022/05/05 01:38:20;;;;;;;7.18;5.97;;;;;;;12.65;nan;100689.41;5029793;28;20148;-72
2022/05/05 01:40:46;;;;;;;6.93;6.00;;;;;;;12.66;nan;100699.06;5029074;28;20405;-71
2022/05/05 01:43:13;;;;;;;8.60;7.40;;;;;;;12.61;nan;100698.69;5030408;28;20048;-71
2022/05/05 01:45:39;;;;;;;11.02;9.65;;;;;;;12.58;nan;100688.41;5029265;28;20060;-71
2022/05/05 01:48:05;;;;;;;8.45;7.50;;;;;;;12.60;nan;100691.72;5027975;28;20502;-72
2022/05/05 01:50:31;;;;;;;9.05;7.70;;;;;;;12.59;nan;100690.09;5028953;28;20041;-71
2022/05/05 01:52:57;;;;;;;9.05;7.43;;;;;;;12.61;nan;100693.38;5030730;28;20037;-71
2022/05/05 01:55:23;;;;;;;8.25;7.20;;;;;;;12.64;nan;100696.56;5030030;28;20486;-71
2022/05/05 01:57:49;;;;;;;9.60;7.95;;;;;;;12.70;nan;100689.75;5029209;28;20045;-71
2022/05/05 02:00:14;;;;;;;9.00;7.05;;;;;;;12.74;nan;100696.41;5030002;28;20052;-72
2022/05/05 02:02:43;;;;;;;9.20;7.70;;;;;;;12.75;nan;100700.72;5028622;28;20029;-71
2022/05/05 02:05:10;;;;;;;8.75;7.65;;;;;;;12.77;nan;100698.75;5029601;28;20132;-71
2022/05/05 02:07:35;;;;;;;8.73;7.10;;;;;;;12.81;nan;100702.75;5028836;28;20602;-72
2022/05/05 02:10:04;;;;;;;10.98;9.30;;;;;;;12.84;nan;100704.22;5030573;28;20037;-71
2022/05/05 02:12:35;;;;;;;9.50;8.32;;;;;;;12.89;nan;100702.75;5028453;28;20041;-71
2022/05/05 02:15:02;;;;;;;11.00;7.90;;;;;;;12.92;nan;100701.63;5030731;28;20513;-72
2022/05/05 02:17:27;;;;;;;9.23;8.15;;;;;;;12.92;nan;100702.44;5030026;28;20490;-72
2022/05/05 02:19:53;;;;;;;8.52;7.35;;;;;;;12.94;nan;100703.13;5028748;28;20368;-71
2022/05/05 02:22:18;;;;;;;8.75;7.22;;;;;;;12.94;nan;100700.47;5029378;28;20029;-72
2022/05/05 02:24:43;;;;;;;8.70;7.38;;;;;;;12.95;nan;100703.94;5028452;28;20068;-72
2022/05/05 02:27:09;;;;;;;10.98;8.93;;;;;;;12.95;nan;100702.09;5028888;28;20030;-71
2022/05/05 02:29:34;;;;;;;11.13;9.25;;;;;;;12.90;nan;100699.13;5027866;28;20068;-72
2022/05/05 02:32:00;;;;;;;10.25;7.85;;;;;;;12.88;nan;100695.78;5029888;28;20041;-71
2022/05/05 02:34:25;;;;;;;14.30;11.48;;;;;;;12.87;nan;100696.78;5028937;28;20062;-71
2022/05/05 02:39:34;;;;;;;14.02;12.52;;;;;;;12.71;nan;100699.41;5027952;28;20099;-71
2022/05/05 02:42:00;;;;;;;14.75;12.95;;;;;;;12.67;nan;100695.41;5030379;28;20437;-71
2022/05/05 02:44:26;;;;;;;13.95;11.38;;;;;;;12.64;nan;100698.38;5028868;28;20053;-71
2022/05/05 02:46:51;;;;;;;13.13;10.80;;;;;;;12.68;nan;100694.41;5030185;28;20029;-72
2022/05/05 02:49:16;;;;;;;19.52;15.85;;;;;;;12.69;nan;100696.06;5027573;28;20120;-71
2022/05/05 02:51:42;;;;;;;18.88;15.32;;;;;;;12.71;nan;100700.22;5029372;28;20490;-71
2022/05/05 02:56:51;;;;;;;15.43;12.40;;;;;;;12.72;nan;100690.44;5029883;28;20045;-72
2022/05/05 02:59:16;;;;;;;16.05;13.15;;;;;;;12.66;nan;100688.44;5028195;28;20033;-72
2022/05/05 03:01:42;;;;;;;19.48;15.52;;;;;;;12.59;nan;100695.38;5028584;28;20030;-72
2022/05/05 03:04:07;;;;;;;16.75;13.70;;;;;;;12.56;nan;100701.00;5028493;28;20465;-71
2022/05/05 03:06:32;;;;;;;20.77;17.77;;;;;;;12.51;nan;100698.81;5030785;28;20502;-72
2022/05/05 03:08:58;;;;;;;16.80;13.90;;;;;;;12.52;nan;100706.63;5030589;28;20029;-72
2022/05/05 03:11:23;;;;;;;17.90;14.40;;;;;;;12.52;nan;100700.50;5031686;28;20041;-72
2022/05/05 03:13:49;;;;;;;15.77;13.07;;;;;;;12.53;nan;100705.63;5031642;28;20045;-72
2022/05/05 03:16:14;;;;;;;11.80;9.85;;;;;;;12.57;nan;100705.31;5029782;28;20029;-72
2022/05/05 03:18:42;;;;;;;12.63;10.18;;;;;;;12.59;nan;100698.03;5027299;28;20025;-72
2022/05/05 03:21:08;;;;;;;11.75;9.65;;;;;;;12.60;nan;100705.81;5029114;28;20041;-72
2022/05/05 03:23:33;;;;;;;12.63;10.73;;;;;;;12.60;nan;100710.31;5028208;28;20510;-72
2022/05/05 03:25:58;;;;;;;11.38;9.70;;;;;;;12.62;nan;100706.50;5028729;28;20406;-72
2022/05/05 03:28:24;;;;;;;10.90;9.05;;;;;;;12.66;nan;100704.38;5029184;28;20053;-72
2022/05/05 03:30:49;;;;;;;10.32;8.88;;;;;;;12.69;nan;100712.00;5031021;28;20042;-72
2022/05/05 03:33:15;;;;;;;12.18;10.32;;;;;;;12.68;nan;100711.16;5035196;28;20057;-72
2022/05/05 03:35:40;;;;;;;12.60;10.80;;;;;;;12.69;nan;100715.47;5028502;28;20057;-72
2022/05/05 03:38:06;;;;;;;13.88;11.00;;;;;;;12.69;nan;100712.00;5028850;28;20034;-71
2022/05/05 03:40:31;;;;;;;10.65;9.10;;;;;;;12.70;nan;100722.47;5030117;28;20044;-72
2022/05/05 03:42:57;;;;;;;10.80;9.27;;;;;;;12.70;nan;100722.47;5025901;28;20033;-72
2022/05/05 03:45:22;;;;;;;10.57;7.88;;;;;;;12.73;nan;100727.44;5029493;28;20105;-72
2022/05/05 03:47:48;;;;;;;9.18;7.90;;;;;;;12.75;nan;100729.91;5027836;28;20195;-72
2022/05/05 03:50:14;;;;;;;8.48;7.03;;;;;;;12.76;nan;100720.97;5029202;28;20038;-72
2022/05/05 03:52:39;;;;;;;10.43;8.45;;;;;;;12.77;nan;100730.56;5028747;28;20203;-71
2022/05/05 03:55:05;;;;;;;11.02;9.35;;;;;;;12.77;nan;100730.56;5029410;28;20120;-72
2022/05/05 03:57:30;;;;;;;10.70;8.43;;;;;;;12.74;nan;100730.91;5029522;28;20030;-72
2022/05/05 03:59:55;;;;;;;8.75;7.40;;;;;;;12.73;nan;100737.22;5029065;28;20053;-71
2022/05/05 04:02:21;;;;;;;10.02;8.38;;;;;;;12.70;nan;100737.53;5028241;28;20557;-72
2022/05/05 04:04:46;;;;;;;10.40;8.90;;;;;;;12.67;nan;100738.69;5027372;28;20059;-72
2022/05/05 04:07:11;;;;;;;10.45;8.70;;;;;;;12.66;nan;100742.34;5031620;28;20425;-72
2022/05/05 04:09:37;;;;;;;14.88;11.77;;;;;;;12.69;nan;100746.47;5028195;28;20571;-72
2022/05/05 04:12:02;;;;;;;11.27;8.73;;;;;;;12.74;nan;100747.66;5028874;28;20021;-72
2022/05/05 04:14:27;;;;;;;9.75;8.57;;;;;;;12.75;nan;100752.00;5028916;28;20118;-71
2022/05/05 04:16:53;;;;;;;14.85;13.05;;;;;;;12.70;nan;100754.28;5026160;28;20494;-71
2022/05/05 04:19:19;;;;;;;14.95;12.88;;;;;;;12.64;nan;100752.28;5028103;28;20041;-72
2022/05/05 04:21:44;;;;;;;16.23;13.80;;;;;;;12.56;nan;100756.69;5028639;28;20049;-72
2022/05/05 04:24:10;;;;;;;13.93;11.88;;;;;;;12.52;nan;100759.69;5024885;28;20042;-71
2022/05/05 04:26:35;;;;;;;11.82;9.75;;;;;;;12.54;nan;100762.19;5027968;28;20072;-72
2022/05/05 04:29:01;;;;;;;10.38;9.00;;;;;;;12.50;nan;100759.00;5026605;28;20034;-72
2022/05/05 04:31:31;;;;;;;9.82;7.95;;;;;;;12.49;nan;100757.34;5028985;28;20055;-72
2022/05/05 04:33:56;;;;;;;9.05;7.68;;;;;;;12.50;nan;100760.81;5030660;28;20033;-72
2022/05/05 04:36:22;;;;;;;11.90;8.82;;;;;;;12.47;nan;100764.63;5027753;28;20099;-71
2022/05/05 04:38:47;;;;;;;11.35;9.85;;;;;;;12.42;nan;100774.03;5029372;28;20049;-72
2022/05/05 04:41:13;;;;;;;11.57;9.63;;;;;;;12.40;nan;100766.25;5029728;28;20037;-72
2022/05/05 04:43:38;;;;;;;10.90;8.57;;;;;;;12.40;nan;100771.56;5027774;28;20045;-72
2022/05/05 04:46:04;;;;;;;8.98;7.88;;;;;;;12.43;nan;100775.72;5029225;28;20033;-72
2022/05/05 04:48:30;;;;;;;8.25;7.13;;;;;;;12.47;nan;100777.91;5027859;28;20167;-72
2022/05/05 04:50:55;;;;;;;10.27;7.97;;;;;;;12.52;nan;100766.81;5029236;28;20041;-72
2022/05/05 04:53:21;;;;;;;9.23;7.40;;;;;;;12.54;nan;100775.44;5029569;28;20036;-72
2022/05/05 04:55:46;;;;;;;9.23;8.23;;;;;;;12.58;nan;100783.91;5032808;28;20509;-73
2022/05/05 04:58:11;;;;;;;9.60;8.15;;;;;;;12.62;nan;100787.91;5031805;28;20029;-74
2022/05/05 05:00:37;;;;;;;10.48;8.52;;;;;;;12.64;nan;100785.94;5033486;28;20038;-73
2022/05/05 05:03:02;;;;;;;9.77;7.68;;;;;;;12.67;nan;100786.44;5033174;28;20042;-71
2022/05/05 05:05:27;;;;;;;9.95;8.82;;;;;;;12.70;nan;100779.97;5030119;28;20402;-72
2022/05/05 05:07:53;;;;;;;8.63;7.53;;;;;;;12.71;nan;100786.97;5031478;28;20057;-71
2022/05/05 05:10:18;;;;;;;10.85;9.60;;;;;;;12.71;nan;100790.44;5031308;28;20049;-74
2022/05/05 05:12:44;;;;;;;13.40;9.88;;;;;;;12.75;nan;100794.44;5031998;28;20517;-71
2022/05/05 05:15:10;;;;;;;12.15;10.05;;;;;;;12.79;nan;100799.44;5031451;28;20460;-71
2022/05/05 05:17:36;;;;;;;11.60;10.02;;;;;;;12.80;nan;100801.94;5031415;28;20038;-74
2022/05/05 05:20:03;;;;;;;12.35;10.77;;;;;;;12.81;nan;100795.63;5028685;28;20441;-71
2022/05/05 05:22:28;;;;;;;12.88;10.23;;;;;;;12.87;nan;100802.09;5027362;28;20034;-71
2022/05/05 05:24:54;;;;;;;16.45;13.27;;;;;;;12.87;nan;100799.44;5031391;28;20041;-74
2022/05/05 05:27:19;;;;;;;17.45;13.75;;;;;;;12.88;nan;100809.09;5030210;28;20318;-72
2022/05/05 05:29:44;;;;;;;14.38;12.35;;;;;;;12.93;nan;100806.78;5032042;28;20072;-72
2022/05/05 05:32:10;;;;;;;13.77;11.52;;;;;;;13.00;nan;100817.59;5031641;28;20030;-72
2022/05/05 05:34:35;;;;;;;11.98;10.20;;;;;;;13.06;nan;100816.94;5029222;28;20045;-72
2022/05/05 05:37:00;;;;;;;15.32;12.85;;;;;;;13.05;nan;100815.28;5033415;28;20132;-72
2022/05/05 05:39:26;;;;;;;14.07;11.25;;;;;;;13.07;nan;100824.75;5032552;28;20033;-72
2022/05/05 05:41:51;;;;;;;13.82;11.63;;;;;;;13.11;nan;100827.94;5030144;28;20380;-72
2022/05/05 05:44:17;;;;;;;14.88;11.02;;;;;;;13.13;nan;100828.56;5031197;28;20091;-72
2022/05/05 05:46:42;;;;;;;14.25;11.57;;;;;;;13.21;nan;100825.13;5031123;28;20170;-72
2022/05/05 05:49:09;;;;;;;14.23;11.52;;;;;;;13.26;nan;100836.09;5029057;28;20037;-72
2022/05/05 05:51:35;;;;;;;14.43;11.35;;;;;;;13.30;nan;100830.34;5030420;28;20433;-72
2022/05/05 05:54:00;;;;;;;11.25;9.32;;;;;;;13.40;nan;100834.69;5030062;28;20026;-71
2022/05/05 05:56:26;;;;;;;13.70;11.32;;;;;;;13.43;nan;100827.19;5035928;28;20527;-70
2022/05/05 05:58:51;;;;;;;13.07;11.48;;;;;;;13.44;nan;100836.00;5037807;28;20033;-70
2022/05/05 06:01:16;;;;;;;12.73;10.68;;;;;;;13.47;nan;100838.34;5034326;28;20045;-70
2022/05/05 06:03:54;;;;;;;15.40;13.38;;;;;;;13.42;nan;100840.63;5037538;28;20033;-70
2022/05/05 06:06:23;;;;;;;13.85;11.05;;;;;;;13.40;nan;100843.47;5035694;28;20030;-71
2022/05/05 06:08:49;;;;;;;20.17;15.25;;;;;;;13.41;nan;100845.13;5034899;28;20112;-70
2022/05/05 06:11:17;;;;;;;16.65;13.95;;;;;;;13.49;nan;100844.31;5036430;28;20072;-70
2022/05/05 06:13:43;;;;;;;19.77;16.88;;;;;;;13.49;nan;100849.63;5030187;28;20031;-70
2022/05/05 06:16:10;;;;;;;21.65;18.13;;;;;;;13.44;nan;100843.97;5037549;28;20510;-70
2022/05/05 06:18:39;;;;;;;20.08;16.63;;;;;;;13.40;nan;100847.97;5031931;28;20168;-70
2022/05/05 06:21:06;;;;;;;18.40;15.00;;;;;;;13.41;nan;100857.59;5036725;28;20046;-70
2022/05/05 06:23:31;;;;;;;17.05;14.95;;;;;;;13.37;nan;100855.25;5035867;28;20030;-70
2022/05/05 06:25:57;;;;;;;16.60;13.30;;;;;;;13.38;nan;100858.75;5036705;28;20168;-70
2022/05/05 06:28:22;;;;;;;16.08;12.60;;;;;;;13.39;nan;100860.38;5032896;28;20508;-70
2022/05/05 06:30:47;;;;;;;14.98;12.57;;;;;;;13.38;nan;100862.22;5038514;28;20159;-70
2022/05/05 06:33:13;;;;;;;15.93;13.20;;;;;;;13.41;nan;100866.38;5036274;28;20081;-70
2022/05/05 06:35:38;;;;;;;15.23;13.07;;;;;;;13.40;nan;100878.00;5036231;28;20049;-70
2022/05/05 06:38:03;;;;;;;16.88;12.75;;;;;;;13.43;nan;100879.50;5034464;28;20505;-70
2022/05/05 06:40:29;;;;;;;15.45;12.02;;;;;;;13.45;nan;100870.38;5034618;28;20037;-70
2022/05/05 06:42:54;;;;;;;15.35;12.75;;;;;;;13.46;nan;100880.00;5038449;28;20052;-70
2022/05/05 06:45:20;;;;;;;16.77;13.90;;;;;;;13.43;nan;100872.34;5038503;28;20120;-70
2022/05/05 06:47:45;;;;;;;18.52;15.70;;;;;;;13.31;nan;100874.47;5033550;28;20033;-70
2022/05/05 06:50:11;;;;;;;16.63;14.05;;;;;;;13.16;nan;100879.53;5034500;28;20033;-71
2022/05/05 06:52:36;;;;;;;19.33;14.70;;;;;;;13.04;nan;100882.63;5036993;28;20075;-70
2022/05/05 06:55:03;;;;;;;15.80;12.80;;;;;;;12.99;nan;100885.78;5038264;28;20033;-70
2022/05/05 06:57:29;;;;;;;12.43;10.70;;;;;;;12.96;nan;100881.59;5036711;28;20053;-70
2022/05/05 06:59:54;;;;;;;13.57;10.73;;;;;;;12.96;nan;100886.09;5035802;28;20041;-71
2022/05/05 07:02:19;;;;;;;16.25;11.38;;;;;;;12.92;nan;100895.38;5033981;28;20041;-71
2022/05/05 07:07:30;;;;;;;12.73;10.85;;;;;;;12.87;nan;100897.63;5036677;28;20545;-70
2022/05/05 07:12:39;;;;;;;15.60;11.95;;;;;;;12.81;nan;100904.41;5036885;28;20586;-70
2022/05/05 07:15:08;;;;;;;14.48;11.63;;;;;;;12.82;nan;100900.75;5037543;28;20034;-72
2022/05/05 07:17:33;;;;;;;14.45;12.00;;;;;;;12.78;nan;100910.06;5029406;28;20030;-72
2022/05/05 07:19:58;;;;;;;12.68;10.52;;;;;;;12.83;nan;100915.72;5031264;28;20402;-72
2022/05/05 07:22:24;;;;;;;13.63;11.18;;;;;;;12.85;nan;100916.41;5030243;28;20043;-72
2022/05/05 07:24:49;;;;;;;14.90;12.23;;;;;;;12.83;nan;100918.38;5029834;28;20025;-72
2022/05/05 07:27:14;;;;;;;15.48;12.75;;;;;;;12.83;nan;100923.69;5031074;28;20133;-72
2022/05/05 07:29:42;;;;;;;20.35;15.18;;;;;;;12.83;nan;100923.69;5025543;28;20037;-71
2022/05/05 07:32:09;;;;;;;16.00;13.85;;;;;;;12.91;nan;100931.69;5031952;28;20097;-72
2022/05/05 07:34:34;;;;;;;15.57;13.35;;;;;;;12.92;nan;100927.22;5033168;28;20064;-72
2022/05/05 07:37:03;;;;;;;16.70;13.88;;;;;;;12.93;nan;100927.03;5027433;28;20045;-72
2022/05/05 07:39:28;;;;;;;16.05;13.57;;;;;;;12.87;nan;100933.00;5033504;28;20033;-72
2022/05/05 07:41:53;;;;;;;16.67;14.13;;;;;;;12.92;nan;100936.00;5032917;28;20037;-72
2022/05/05 07:44:18;;;;;;;21.58;15.88;;;;;;;12.82;nan;100934.44;5032328;28;20048;-73
2022/05/05 07:46:44;;;;;;;18.48;14.27;;;;;;;12.77;nan;100934.09;5030831;28;20037;-72
2022/05/05 07:49:10;;;;;;;20.55;15.88;;;;;;;12.69;nan;100938.34;5031971;28;20036;-72
2022/05/05 07:51:35;;;;;;;21.30;17.35;;;;;;;12.62;nan;100939.97;5027384;28;20124;-73
2022/05/05 07:56:46;;;;;;;19.77;15.93;;;;;;;12.45;nan;100949.63;5031118;28;20532;-72
2022/05/05 07:59:11;;;;;;;18.90;14.23;;;;;;;12.39;nan;100947.56;5030522;28;20025;-73
2022/05/05 08:01:37;;;;;;;16.05;13.13;;;;;;;12.44;nan;100947.09;5030128;28;20509;-72
2022/05/05 08:04:04;;;;;;;19.47;15.10;;;;;;;12.41;nan;100956.19;5030961;28;20022;-72
2022/05/05 08:06:29;;;;;;;22.42;15.52;;;;;;;12.28;nan;100953.13;5030764;28;20034;-72
2022/05/05 08:08:55;;;;;;;19.05;14.50;;;;;;;12.22;nan;100951.06;5026257;28;20034;-72
2022/05/05 08:11:20;;;;;;;17.48;13.25;;;;;;;12.25;nan;100956.06;5028339;28;20121;-72
2022/05/05 08:13:45;;;;;;;16.48;11.93;;;;;;;12.27;nan;100954.91;5030312;28;20034;-72
2022/05/05 08:16:11;;;;;;;17.95;11.70;;;;;;;12.23;nan;100950.09;5030457;28;20038;-73
2022/05/05 08:18:40;;;;;;;19.70;13.57;;;;;;;12.23;nan;100952.75;5030977;28;20513;-72
2022/05/05 08:21:06;;;;;;;14.15;11.00;;;;;;;12.34;nan;100952.50;5030666;28;20518;-73
2022/05/05 08:23:32;;;;;;;14.77;11.10;;;;;;;12.43;nan;100953.41;5030420;28;20108;-72
2022/05/05 08:28:42;;;;;;;13.85;11.10;;;;;;;12.73;nan;100950.31;5033358;28;20095;-73
2022/05/05 08:31:10;;;;;;;16.63;13.13;;;;;;;12.84;nan;100957.19;5034049;28;20116;-73
2022/05/05 08:33:35;;;;;;;16.67;13.82;;;;;;;13.12;nan;100949.06;5034121;28;20041;-72
2022/05/05 08:36:01;;;;;;;18.80;13.20;;;;;;;13.53;nan;100947.44;5032157;28;20059;-71
2022/05/05 08:38:26;;;;;;;18.70;13.95;;;;;;;13.96;nan;100953.53;5035622;28;20045;-71
2022/05/05 08:40:51;;;;;;;15.70;11.98;;;;;;;14.38;nan;100955.25;5035870;28;20045;-72
2022/05/05 08:43:18;;;;;;;15.77;10.68;;;;;;;14.91;nan;100957.56;5033880;28;20046;-72
2022/05/05 08:45:47;;;;;;;17.75;12.85;;;;;;;15.01;nan;100955.53;5035994;28;20041;-72
2022/05/05 08:48:12;;;;;;;16.20;12.38;;;;;;;14.97;nan;100963.03;5028285;28;20084;-72
2022/05/05 08:50:39;;;;;;;14.32;10.90;;;;;;;15.12;nan;100967.66;5035191;28;20045;-72
2022/05/05 08:53:06;;;;;;;13.48;10.77;;;;;;;15.15;nan;100973.47;5033756;28;20129;-72
2022/05/05 08:55:32;;;;;;;15.35;12.10;;;;;;;15.20;nan;100975.63;5034725;28;20458;-72
2022/05/05 08:58:00;;;;;;;14.80;11.30;;;;;;;15.14;nan;100966.50;5035341;28;20057;-72
2022/05/05 09:00:27;;;;;;;13.18;10.63;;;;;;;15.18;nan;100969.63;5034027;28;20063;-72
2022/05/05 09:02:56;;;;;;;14.02;10.70;;;;;;;15.13;nan;100969.31;5035223;28;20041;-72
2022/05/05 09:05:43;;;;;;;15.20;11.55;;;;;;;14.96;nan;100961.38;5034274;28;20120;-71
2022/05/05 09:08:24;;;;;;;13.15;11.13;;;;;;;14.79;nan;100959.75;5034830;28;20088;-72
2022/05/05 09:10:50;;;;;;;;;;;;;;;14.74;nan;100968.22;5029147;28;20096;-72
2022/05/05 09:13:23;;;;;;;14.20;11.70;;;;;;;14.62;nan;100959.75;5034108;28;20366;-72
2022/05/05 09:15:48;;;;;;;17.77;12.05;;;;;;;14.61;nan;100966.09;5035509;28;20033;-71
2022/05/05 09:18:22;;;;;;;14.43;10.57;;;;;;;14.56;nan;100964.91;5034529;28;20033;-72
2022/05/05 09:20:49;;;;;;;15.32;11.05;;;;;;;14.50;nan;100969.06;5026658;28;20053;-72
2022/05/05 09:23:34;;;;;;;14.52;10.63;;;;;;;14.56;nan;100975.56;5034495;28;20541;-71
2022/05/05 09:26:01;;;;;;;13.52;10.30;;;;;;;14.61;nan;100971.41;5028797;28;20029;-72
2022/05/05 09:28:30;;;;;;;15.65;12.02;;;;;;;14.57;nan;100971.91;5027254;28;20038;-72
2022/05/05 09:31:06;;;;;;;15.05;10.57;;;;;;;14.57;nan;100970.06;5033530;28;20025;-72
2022/05/05 09:33:35;;;;;;;15.95;11.10;;;;;;;14.45;nan;100971.38;5034744;28;20033;-72
2022/05/05 09:36:17;;;;;;;14.88;10.60;;;;;;;14.43;nan;100976.03;5034484;28;20046;-72
2022/05/05 09:39:04;;;;;;;15.05;10.40;;;;;;;14.28;nan;100983.00;5034139;28;20109;-71
2022/05/05 09:41:32;;;;;;;17.00;11.35;;;;;;;14.17;nan;100978.84;5036722;28;20038;-71
2022/05/05 09:44:00;;;;;;;18.85;11.20;;;;;;;14.07;nan;100988.81;5037506;28;20093;-71
2022/05/05 09:46:25;;;;;;;15.38;11.05;;;;;;;14.06;nan;100979.97;5036952;28;20040;-71
2022/05/05 09:49:12;;;;;;;14.30;10.43;;;;;;;14.12;nan;100983.81;5037144;28;20525;-71
2022/05/05 09:51:39;;;;;;;13.75;10.05;;;;;;;14.17;nan;100984.97;5036378;28;20574;-72
2022/05/05 09:59:40;;;;;;;17.90;10.88;;;;;;;14.50;nan;100981.53;5037195;28;20072;-71
2022/05/05 10:02:15;;;;;;;16.42;11.27;;;;;;;14.61;nan;100984.72;5036722;28;20481;-72
2022/05/05 10:04:48;;;;;;;14.30;10.60;;;;;;;14.74;nan;100988.72;5036743;28;20054;-71
2022/05/05 10:07:18;;;;;;;13.23;10.10;;;;;;;14.79;nan;100989.84;5034786;28;20293;-71
2022/05/05 10:09:46;;;;;;;19.75;11.38;;;;;;;15.03;nan;100988.16;5034878;28;20116;-72
2022/05/05 10:12:14;;;;;;;14.15;10.77;;;;;;;15.14;nan;100981.66;5036293;28;20068;-71
2022/05/05 10:14:41;;;;;;;14.52;9.93;;;;;;;15.30;nan;100986.91;5036903;28;20025;-71
2022/05/05 10:17:07;;;;;;;11.90;10.48;;;;;;;15.45;nan;100993.19;5036460;28;20410;-71
2022/05/05 10:19:33;;;;;;;14.25;10.43;;;;;;;15.30;nan;100989.56;5037055;28;20123;-71
2022/05/05 10:22:08;;;;;;;14.95;10.77;;;;;;;15.20;nan;100987.09;5034856;28;20033;-71
2022/05/05 10:24:43;;;;;;;14.63;10.45;;;;;;;15.26;nan;100989.09;5028037;28;20033;-71
2022/05/05 10:27:09;;;;;;;12.55;9.77;;;;;;;15.38;nan;100986.91;5036694;28;20029;-71
2022/05/05 10:29:35;;;;;;;17.52;12.32;;;;;;;15.28;nan;100984.44;5030868;28;20036;-71
2022/05/05 10:32:18;;;;;;;15.52;11.73;;;;;;;15.20;nan;100987.09;5035097;28;20021;-71
2022/05/05 10:34:51;;;;;;;16.65;11.07;;;;;;;15.22;nan;100984.28;5036573;28;20033;-72
2022/05/05 10:37:30;;;;;;;13.48;10.90;;;;;;;15.37;nan;100982.56;5035731;28;20414;-71
2022/05/05 10:40:06;;;;;;;14.85;11.00;;;;;;;15.43;nan;100986.38;5036826;28;20025;-71
2022/05/05 10:42:44;;;;;;;17.05;12.38;;;;;;;15.32;nan;100976.09;5035293;28;20068;-71
2022/05/05 10:45:10;;;;;;;16.38;11.65;;;;;;;15.31;nan;100975.28;5035612;28;20044;-71
2022/05/05 10:48:06;;;;;;;16.98;12.60;;;;;;;15.38;nan;100975.41;5031011;28;20523;-71
2022/05/05 10:50:56;;;;;;;14.93;11.13;;;;;;;15.43;nan;100979.22;5034226;28;20891;-71
2022/05/05 10:53:24;;;;;;;14.73;11.05;;;;;;;15.36;nan;100977.41;5034477;28;20052;-71
2022/05/05 10:55:50;;;;;;;;;;;;;;;15.27;nan;100974.75;5034318;28;20041;-71
2022/05/05 10:58:56;;;;;;;15.20;11.45;;;;;;;15.18;nan;100974.97;5034122;28;19913;-71
2022/05/05 11:01:22;;;;;;;14.25;10.70;;;;;;;15.16;nan;100967.16;5029051;28;20042;-71
2022/05/05 11:04:24;;;;;;;19.55;13.15;;;;;;;15.13;nan;100967.47;5033738;28;20559;-71
2022/05/05 11:07:23;;;;;;;17.05;12.73;;;;;;;15.12;nan;100965.84;5035074;28;20029;-71
2022/05/05 11:09:49;;;;;;;17.73;12.30;;;;;;;15.21;nan;100974.66;5034458;28;20030;-71
2022/05/05 11:12:30;;;;;;;14.25;10.40;;;;;;;15.19;nan;100977.47;5034453;28;20045;-71
2022/05/05 11:23:48;;;;;;;14.82;10.82;;;;;;;15.40;nan;100984.91;5033753;28;20552;-71
2022/05/05 11:26:19;;;;;;;16.38;10.95;;;;;;;15.45;nan;100981.72;5034394;28;20045;-71
2022/05/05 11:28:45;;;;;;;13.40;10.70;;;;;;;15.70;nan;100979.78;5031963;28;20564;-71
2022/05/05 11:31:20;;;;;;;18.20;11.93;;;;;;;15.86;nan;100981.56;5034566;28;20029;-71
2022/05/05 11:34:01;;;;;;;19.45;12.73;;;;;;;15.93;nan;100978.00;5033180;28;20099;-71
2022/05/05 11:36:28;;;;;;;13.95;11.30;;;;;;;16.04;nan;100978.59;5033133;28;20099;-71
2022/05/05 11:38:54;;;;;;;15.20;10.23;;;;;;;16.27;nan;100983.97;5032454;28;20028;-71
2022/05/05 11:41:20;;;;;;;16.40;12.18;;;;;;;16.34;nan;100977.72;5033659;28;20041;-71
2022/05/05 11:46:31;;;;;;;14.25;11.32;;;;;;;16.69;nan;100970.09;5032973;28;20036;-71
2022/05/05 11:48:57;;;;;;;15.55;11.95;;;;;;;16.75;nan;100972.03;5031037;28;20044;-71
2022/05/05 11:51:33;;;;;;;14.23;10.90;;;;;;;16.96;nan;100965.19;5032372;28;20112;-71
2022/05/05 11:53:59;;;;;;;11.82;9.73;;;;;;;17.29;nan;100962.16;5031009;28;20033;-71
2022/05/05 11:56:26;;;;;;;14.55;10.75;;;;;;;17.59;nan;100958.44;5032187;28;20041;-71
2022/05/05 12:01:41;;;;;;;15.10;11.73;;;;;;;17.92;nan;100970.56;5027226;28;20640;-71
2022/05/05 12:04:10;;;;;;;13.73;11.10;;;;;;;18.06;nan;100964.34;5031452;28;20041;-71
2022/05/05 12:06:38;;;;;;;17.67;11.73;;;;;;;18.15;nan;100965.03;5032254;28;20048;-71
2022/05/05 12:09:07;;;;;;;14.80;10.20;;;;;;;18.29;nan;100968.69;5031943;28;20104;-71
2022/05/05 12:11:32;;;;;;;15.23;10.60;;;;;;;18.42;nan;100964.28;5031359;28;20513;-71
2022/05/05 12:14:03;;;;;;;15.60;11.32;;;;;;;18.68;nan;100962.81;5031743;28;20045;-71